Time;durP1;ratioP1;P1;durP2;ratioP2;P2;SDS_P1;SDS_P2;PMS_P1;PMS_P2;Temp;Humidity;BMP_temperature;BMP_pressure;BME280_temperature;BME280_humidity;BME280_pressure;Samples;Min_cycle;Max_cycle;Signal;HPM_P1;HPM_P2
2022/07/28 00:00:22;;;;;;;5.30;0.93;;;14.30;66.00;;;;;;5009739;28;20037;-78
2022/07/28 00:02:47;;;;;;;4.40;0.88;;;14.30;64.30;;;;;;5008885;28;20025;-77
2022/07/28 00:05:13;;;;;;;1.38;0.90;;;14.30;64.20;;;;;;4993142;28;20383;-77
2022/07/28 00:07:38;;;;;;;1.67;0.70;;;14.20;65.20;;;;;;4992714;28;20350;-77
2022/07/28 00:10:04;;;;;;;1.27;0.80;;;14.20;68.30;;;;;;5024815;28;20257;-77
2022/07/28 00:12:30;;;;;;;2.83;1.08;;;14.20;65.10;;;;;;4989989;28;20050;-77
2022/07/28 00:14:55;;;;;;;2.88;0.75;;;14.20;64.60;;;;;;5004158;28;20489;-77
2022/07/28 00:17:21;;;;;;;4.07;1.10;;;14.10;67.20;;;;;;5023308;28;20029;-77
2022/07/28 00:19:46;;;;;;;7.03;0.80;;;14.10;65.40;;;;;;5006268;28;20026;-77
2022/07/28 00:22:12;;;;;;;4.55;0.85;;;14.10;66.10;;;;;;5006498;28;20109;-77
2022/07/28 00:24:38;;;;;;;1.48;0.82;;;14.20;66.50;;;;;;5015908;28;20087;-77
2022/07/28 00:27:05;;;;;;;2.28;1.08;;;14.10;69.00;;;;;;4992442;28;20030;-78
2022/07/28 00:29:30;;;;;;;2.25;0.80;;;14.10;65.80;;;;;;4992200;28;20100;-77
2022/07/28 00:31:56;;;;;;;2.60;0.98;;;13.90;65.80;;;;;;4993280;28;20057;-77
2022/07/28 00:34:22;;;;;;;4.00;1.20;;;14.00;69.50;;;;;;5008556;28;20044;-77
2022/07/28 00:36:47;;;;;;;7.32;0.90;;;14.10;67.50;;;;;;5009022;28;20036;-77
2022/07/28 00:39:13;;;;;;;3.00;0.80;;;14.00;66.60;;;;;;5010254;28;20029;-78
2022/07/28 00:41:38;;;;;;;2.47;0.98;;;14.00;66.10;;;;;;4992883;28;20116;-78
2022/07/28 00:44:05;;;;;;;1.70;0.73;;;14.00;68.50;;;;;;5004856;28;20034;-78
2022/07/28 00:46:30;;;;;;;2.47;0.95;;;14.00;70.50;;;;;;4991234;28;20108;-78
2022/07/28 00:48:56;;;;;;;3.00;1.50;;;13.90;66.50;;;;;;5005678;28;20138;-78
2022/07/28 00:51:25;;;;;;;4.18;0.73;;;13.90;67.50;;;;;;5007020;28;20029;-78
2022/07/28 00:53:51;;;;;;;6.03;1.10;;;13.90;68.30;;;;;;4994105;28;20037;-78
2022/07/28 00:56:17;;;;;;;5.30;0.95;;;13.80;68.00;;;;;;4999528;28;20029;-78
2022/07/28 00:58:43;;;;;;;8.30;1.20;;;13.80;67.90;;;;;;5010707;28;20554;-78
2022/07/28 01:01:10;;;;;;;4.68;1.08;;;13.80;68.50;;;;;;5013794;28;20267;-78
2022/07/28 01:03:37;;;;;;;2.45;1.08;;;13.80;67.90;;;;;;5014233;28;20497;-78
2022/07/28 01:06:15;;;;;;;1.95;1.13;;;13.70;68.50;;;;;;4994610;28;20025;-78
2022/07/28 01:09:11;;;;;;;1.85;1.05;;;13.70;69.70;;;;;;5011810;28;20041;-78
2022/07/28 01:11:42;;;;;;;5.70;1.20;;;13.70;69.10;;;;;;5013447;28;20029;-77
2022/07/28 01:14:16;;;;;;;3.95;1.05;;;13.70;67.90;;;;;;5009825;28;20040;-77
2022/07/28 01:17:16;;;;;;;5.85;1.60;;;13.70;69.50;;;;;;5025149;28;20084;-77
2022/07/28 01:19:59;;;;;;;2.63;1.20;;;13.70;70.00;;;;;;5024916;28;20125;-77
2022/07/28 01:22:24;;;;;;;1.73;0.82;;;13.70;72.20;;;;;;5006486;28;20034;-77
2022/07/28 01:24:55;;;;;;;2.40;0.90;;;13.60;69.90;;;;;;4992149;28;20034;-77
2022/07/28 01:28:05;;;;;;;3.42;1.00;;;13.60;68.00;;;;;;5011009;28;20049;-77
2022/07/28 01:30:40;;;;;;;3.75;1.10;;;13.50;68.20;;;;;;5008520;28;20573;-77
2022/07/28 01:33:17;;;;;;;5.63;1.60;;;13.60;72.60;;;;;;4991507;28;20513;-77
2022/07/28 01:35:52;;;;;;;5.15;1.33;;;13.50;71.50;;;;;;4992236;28;20033;-77
2022/07/28 01:38:17;;;;;;;1.85;1.13;;;13.50;68.10;;;;;;5008867;28;20052;-77
2022/07/28 01:40:44;;;;;;;2.58;1.15;;;13.40;68.40;;;;;;5009375;28;20138;-77
2022/07/28 01:43:12;;;;;;;3.85;1.10;;;13.40;68.50;;;;;;5009826;28;20426;-77
2022/07/28 01:45:37;;;;;;;5.38;1.25;;;13.40;69.70;;;;;;5016018;28;20058;-77
2022/07/28 01:48:03;;;;;;;6.25;1.45;;;13.40;70.40;;;;;;4994299;28;20057;-77
2022/07/28 01:50:29;;;;;;;5.20;1.20;;;13.40;68.90;;;;;;4993198;28;20305;-77
2022/07/28 01:52:54;;;;;;;1.67;0.98;;;13.40;68.50;;;;;;4995340;28;20117;-76
2022/07/28 01:55:21;;;;;;;1.40;1.20;;;13.30;68.60;;;;;;5015298;28;20104;-77
2022/07/28 01:57:47;;;;;;;4.57;1.30;;;13.20;69.60;;;;;;5011629;28;20037;-77
2022/07/28 02:00:13;;;;;;;3.10;1.05;;;13.20;69.60;;;;;;4992618;28;20068;-77
2022/07/28 02:02:39;;;;;;;2.53;0.85;;;13.20;69.60;;;;;;4992534;28;20034;-76
2022/07/28 02:05:06;;;;;;;6.20;1.45;;;13.20;70.40;;;;;;4992223;28;20103;-77
2022/07/28 02:07:32;;;;;;;4.47;1.20;;;13.10;69.10;;;;;;4995391;28;20038;-77
2022/07/28 02:09:57;;;;;;;5.07;1.10;;;13.10;72.10;;;;;;4995139;28;20090;-77
2022/07/28 02:12:23;;;;;;;2.25;1.00;;;13.10;70.40;;;;;;4996712;28;20026;-77
2022/07/28 02:14:49;;;;;;;3.78;1.35;;;13.00;69.80;;;;;;4996026;28;20460;-77
2022/07/28 02:17:17;;;;;;;4.55;1.30;;;12.90;72.50;;;;;;5009224;28;20567;-77
2022/07/28 02:19:43;;;;;;;2.85;1.10;;;12.90;70.50;;;;;;5014508;28;20109;-75
2022/07/28 02:22:09;;;;;;;2.13;1.10;;;12.80;72.10;;;;;;5006879;28;20026;-75
2022/07/28 02:24:35;;;;;;;4.15;1.00;;;12.70;70.50;;;;;;5010879;28;20038;-75
2022/07/28 02:27:05;;;;;;;5.13;1.40;;;12.70;71.00;;;;;;4993306;28;20104;-75
2022/07/28 02:29:32;;;;;;;5.03;1.40;;;12.80;73.50;;;;;;4991640;28;20370;-75
2022/07/28 02:32:06;;;;;;;5.68;1.25;;;12.70;72.70;;;;;;5007695;28;20523;-75
2022/07/28 02:34:31;;;;;;;6.07;1.17;;;12.60;75.00;;;;;;5006477;28;20026;-75
2022/07/28 02:36:59;;;;;;;4.45;1.10;;;12.60;72.60;;;;;;4991943;28;20033;-75
2022/07/28 02:39:25;;;;;;;2.75;1.35;;;12.50;71.60;;;;;;5004767;28;20100;-75
2022/07/28 02:42:04;;;;;;;3.90;1.20;;;12.40;71.40;;;;;;5007696;28;20437;-75
2022/07/28 02:44:32;;;;;;;3.80;1.25;;;12.30;71.60;;;;;;5005992;28;20034;-75
2022/07/28 02:46:58;;;;;;;7.80;1.50;;;12.30;75.60;;;;;;5009593;28;20511;-75
2022/07/28 02:49:27;;;;;;;6.13;1.40;;;12.30;73.80;;;;;;5013467;28;20132;-75
2022/07/28 02:51:53;;;;;;;3.42;1.38;;;12.40;73.40;;;;;;5005712;28;20122;-75
2022/07/28 02:54:18;;;;;;;6.53;1.85;;;12.30;73.60;;;;;;5006068;28;20054;-75
2022/07/28 02:56:46;;;;;;;4.03;1.38;;;12.30;75.20;;;;;;5007826;28;20048;-75
2022/07/28 02:59:11;;;;;;;2.88;1.42;;;12.30;75.40;;;;;;4990061;28;20037;-75
2022/07/28 03:01:37;;;;;;;4.20;1.27;;;12.10;74.20;;;;;;5012840;28;20540;-76
2022/07/28 03:04:03;;;;;;;8.85;1.40;;;12.10;76.80;;;;;;4994670;28;20022;-76
2022/07/28 03:06:28;;;;;;;6.55;1.23;;;12.20;79.00;;;;;;5004970;28;20041;-78
2022/07/28 03:08:54;;;;;;;2.40;1.50;;;12.00;79.00;;;;;;5007450;28;20145;-76
2022/07/28 03:11:19;;;;;;;5.38;1.13;;;12.10;78.90;;;;;;5008972;28;20041;-76
2022/07/28 03:13:45;;;;;;;4.97;1.05;;;11.90;76.40;;;;;;4992147;28;20026;-76
2022/07/28 03:16:10;;;;;;;3.28;1.50;;;12.00;79.40;;;;;;5008974;28;20018;-76
2022/07/28 03:18:36;;;;;;;4.35;1.77;;;11.90;80.40;;;;;;5016173;28;20037;-75
2022/07/28 03:21:01;;;;;;;7.65;1.98;;;11.90;85.00;;;;;;5013765;28;20077;-76
2022/07/28 03:23:38;;;;;;;4.85;1.55;;;11.90;82.30;;;;;;4990738;28;20029;-76
2022/07/28 03:26:05;;;;;;;4.32;1.30;;;11.90;83.10;;;;;;5011752;28;20540;-76
2022/07/28 03:28:31;;;;;;;4.30;1.58;;;11.90;79.70;;;;;;4987773;28;20034;-75
2022/07/28 03:30:59;;;;;;;9.07;1.45;;;11.70;82.10;;;;;;4994761;28;20045;-76
2022/07/28 03:33:25;;;;;;;4.18;1.38;;;11.80;87.70;;;;;;4989471;28;20114;-76
2022/07/28 03:35:51;;;;;;;5.50;1.23;;;11.70;83.60;;;;;;4992482;28;20125;-76
2022/07/28 03:38:28;;;;;;;4.50;1.60;;;11.70;88.10;;;;;;4988289;28;20049;-76
2022/07/28 03:40:55;;;;;;;3.88;1.90;;;11.60;87.70;;;;;;5010184;28;20045;-76
2022/07/28 03:43:22;;;;;;;6.38;2.42;;;11.50;86.20;;;;;;5006173;28;20037;-76
2022/07/28 03:45:49;;;;;;;3.65;1.27;;;11.60;91.50;;;;;;4975466;28;20049;-76
2022/07/28 03:48:14;;;;;;;10.88;1.65;;;11.50;92.50;;;;;;5008117;28;20042;-75
2022/07/28 03:50:40;;;;;;;4.97;1.30;;;11.50;91.10;;;;;;5012611;28;20042;-75
2022/07/28 03:53:09;;;;;;;5.07;1.88;;;11.50;91.00;;;;;;5009812;28;20030;-76
2022/07/28 03:55:35;;;;;;;2.90;1.73;;;11.60;93.20;;;;;;4990934;28;20033;-75
2022/07/28 03:58:00;;;;;;;3.60;1.60;;;11.50;91.40;;;;;;5008480;28;20057;-78
2022/07/28 04:00:26;;;;;;;2.90;1.50;;;11.50;92.90;;;;;;5011265;28;20477;-76
2022/07/28 04:02:52;;;;;;;4.03;1.20;;;11.60;92.20;;;;;;5007640;28;20027;-76
2022/07/28 04:05:17;;;;;;;5.65;1.65;;;11.60;90.20;;;;;;5008240;28;20041;-76
2022/07/28 04:07:44;;;;;;;3.38;1.48;;;11.50;91.20;;;;;;5009094;28;20059;-76
2022/07/28 04:10:11;;;;;;;5.53;1.35;;;11.40;91.60;;;;;;4987905;28;20557;-76
2022/07/28 04:12:50;;;;;;;4.22;1.23;;;11.40;91.50;;;;;;5003461;28;20046;-76
2022/07/28 04:15:16;;;;;;;5.47;1.48;;;11.40;94.60;;;;;;5003503;28;20044;-76
2022/07/28 04:17:42;;;;;;;9.23;1.70;;;11.40;91.50;;;;;;5005488;28;20034;-76
2022/07/28 04:20:08;;;;;;;9.60;2.10;;;11.30;92.00;;;;;;5011788;28;20050;-76
2022/07/28 04:22:34;;;;;;;6.70;3.33;;;11.40;92.10;;;;;;4995911;28;20030;-76
2022/07/28 04:25:00;;;;;;;7.28;1.60;;;11.30;93.30;;;;;;5009703;28;20397;-76
2022/07/28 04:27:26;;;;;;;14.52;2.53;;;11.40;92.10;;;;;;4995190;28;20136;-77
2022/07/28 04:29:51;;;;;;;4.00;1.70;;;11.40;92.30;;;;;;4993924;28;20512;-76
2022/07/28 04:32:17;;;;;;;5.85;1.83;;;11.50;93.70;;;;;;5016065;28;20083;-76
2022/07/28 04:34:42;;;;;;;5.55;1.60;;;11.70;94.40;;;;;;5013675;28;20109;-76
2022/07/28 04:37:08;;;;;;;2.92;1.27;;;11.80;93.80;;;;;;5011273;28;20113;-77
2022/07/28 04:39:34;;;;;;;5.20;2.30;;;11.80;94.00;;;;;;4997091;28;20029;-76
2022/07/28 04:42:00;;;;;;;6.13;1.92;;;12.00;93.20;;;;;;5008589;28;20056;-76
2022/07/28 04:44:25;;;;;;;8.40;1.45;;;12.20;93.00;;;;;;5029323;28;20461;-76
2022/07/28 04:46:51;;;;;;;6.18;1.77;;;12.40;92.90;;;;;;5009621;28;20396;-76
2022/07/28 04:49:16;;;;;;;7.50;2.40;;;12.50;93.10;;;;;;4992558;28;20474;-76
2022/07/28 04:51:48;;;;;;;4.85;1.77;;;12.70;92.40;;;;;;5011447;28;20371;-76
2022/07/28 04:54:13;;;;;;;5.00;1.58;;;12.80;92.20;;;;;;5028392;28;20034;-76
2022/07/28 04:56:39;;;;;;;5.40;1.50;;;12.90;91.40;;;;;;5018268;28;20025;-76
2022/07/28 04:59:05;;;;;;;7.07;1.58;;;12.80;92.40;;;;;;4993919;28;20080;-76
2022/07/28 05:01:30;;;;;;;3.38;1.63;;;12.90;91.40;;;;;;5013931;28;20451;-76
2022/07/28 05:03:56;;;;;;;8.95;2.03;;;13.00;91.30;;;;;;4995988;28;20547;-76
2022/07/28 05:06:21;;;;;;;5.93;1.75;;;12.90;91.50;;;;;;4994999;28;20026;-76
2022/07/28 05:08:48;;;;;;;6.70;2.35;;;13.00;90.80;;;;;;5012854;28;20056;-76
2022/07/28 05:11:14;;;;;;;6.43;1.67;;;13.10;90.70;;;;;;5006980;28;20038;-76
2022/07/28 05:13:40;;;;;;;6.55;1.85;;;13.10;91.00;;;;;;4994271;28;20025;-76
2022/07/28 05:16:05;;;;;;;2.47;1.50;;;13.20;91.30;;;;;;4988631;28;20054;-76
2022/07/28 05:18:31;;;;;;;5.13;1.90;;;13.30;91.50;;;;;;4990321;28;20356;-76
2022/07/28 05:20:56;;;;;;;4.85;1.60;;;13.40;91.10;;;;;;5007361;28;20438;-76
2022/07/28 05:23:22;;;;;;;5.47;2.25;;;13.60;91.10;;;;;;5008931;28;20449;-77
2022/07/28 05:25:47;;;;;;;9.98;1.70;;;13.80;91.50;;;;;;4994997;28;20485;-77
2022/07/28 05:28:13;;;;;;;7.45;1.58;;;14.00;91.50;;;;;;5019551;28;20481;-76
2022/07/28 05:30:38;;;;;;;4.47;1.83;;;14.20;91.50;;;;;;5017881;28;20034;-78
2022/07/28 05:33:04;;;;;;;7.47;2.22;;;14.40;91.00;;;;;;5010897;28;20092;-77
2022/07/28 05:35:30;;;;;;;5.40;1.73;;;14.50;91.30;;;;;;4981764;28;20133;-77
2022/07/28 05:37:55;;;;;;;5.25;1.60;;;14.50;91.60;;;;;;4979516;28;20052;-77
2022/07/28 05:40:21;;;;;;;6.88;2.00;;;14.70;90.80;;;;;;5011632;28;20061;-76
2022/07/28 05:42:46;;;;;;;6.55;3.88;;;14.80;91.20;;;;;;4994670;28;20048;-77
2022/07/28 05:45:12;;;;;;;7.68;1.67;;;15.00;91.20;;;;;;5013308;28;20037;-76
2022/07/28 05:47:45;;;;;;;3.33;1.50;;;15.20;91.10;;;;;;4997136;28;20377;-76
2022/07/28 05:50:12;;;;;;;5.65;1.98;;;15.40;91.40;;;;;;5005282;28;20042;-76
2022/07/28 05:52:37;;;;;;;5.65;2.05;;;15.50;90.90;;;;;;5008831;28;20045;-76
2022/07/28 05:55:04;;;;;;;9.50;1.75;;;15.60;90.40;;;;;;4990133;28;20034;-76
2022/07/28 05:57:30;;;;;;;8.65;2.58;;;15.70;90.10;;;;;;5025939;28;20037;-76
2022/07/28 05:59:55;;;;;;;5.55;2.30;;;15.90;90.50;;;;;;5012766;28;20120;-76
2022/07/28 06:02:21;;;;;;;8.75;2.15;;;16.00;90.30;;;;;;5013363;28;20049;-77
2022/07/28 06:04:46;;;;;;;11.10;1.98;;;16.20;90.40;;;;;;4990858;28;20049;-76
2022/07/28 06:07:12;;;;;;;5.97;1.38;;;16.30;90.20;;;;;;5026420;28;20057;-77
2022/07/28 06:09:37;;;;;;;5.95;1.98;;;16.30;88.30;;;;;;5014740;28;20040;-76
2022/07/28 06:12:03;;;;;;;3.92;1.95;;;16.40;89.50;;;;;;5007652;28;20029;-77
2022/07/28 06:14:29;;;;;;;1.92;1.27;;;16.50;88.50;;;;;;5011715;28;20046;-76
2022/07/28 06:16:54;;;;;;;5.13;1.63;;;16.60;87.90;;;;;;5025353;28;20026;-77
2022/07/28 06:19:20;;;;;;;6.65;2.10;;;16.70;87.90;;;;;;5009018;28;20031;-76
2022/07/28 06:21:46;;;;;;;9.48;2.08;;;16.80;88.10;;;;;;5006797;28;20470;-77
2022/07/28 06:24:12;;;;;;;6.07;1.60;;;17.00;87.60;;;;;;4990467;28;20042;-76
2022/07/28 06:26:38;;;;;;;5.78;1.50;;;17.20;87.50;;;;;;5009343;28;20038;-77
2022/07/28 06:29:04;;;;;;;8.27;2.22;;;17.40;87.20;;;;;;5009429;28;20063;-77
2022/07/28 06:31:29;;;;;;;7.18;2.88;;;17.80;87.50;;;;;;4979315;28;20441;-77
2022/07/28 06:33:55;;;;;;;3.88;2.00;;;18.10;87.10;;;;;;4991823;28;20026;-77
2022/07/28 06:36:21;;;;;;;7.03;1.80;;;18.40;87.70;;;;;;5026107;28;20037;-77
2022/07/28 06:38:46;;;;;;;6.18;2.22;;;18.90;85.90;;;;;;5009036;28;20025;-76
2022/07/28 06:41:12;;;;;;;5.43;1.70;;;19.40;82.50;;;;;;4992394;28;20040;-76
2022/07/28 06:43:37;;;;;;;4.93;1.45;;;19.60;82.20;;;;;;5004770;28;20519;-76
2022/07/28 06:46:03;;;;;;;16.02;1.90;;;19.70;81.30;;;;;;4991083;28;20416;-76
2022/07/28 06:48:28;;;;;;;7.93;1.55;;;19.90;81.20;;;;;;5011290;28;20517;-76
2022/07/28 06:50:57;;;;;;;7.22;1.75;;;20.10;79.20;;;;;;5007446;28;20229;-76
2022/07/28 06:53:22;;;;;;;7.50;1.70;;;20.30;79.00;;;;;;4995486;28;20030;-76
2022/07/28 06:55:48;;;;;;;7.97;1.70;;;20.50;77.50;;;;;;4990369;28;20374;-76
2022/07/28 06:58:13;;;;;;;10.75;2.33;;;20.60;75.80;;;;;;5021740;28;20030;-76
2022/07/28 07:00:39;;;;;;;8.23;1.70;;;20.60;75.50;;;;;;5006028;28;20081;-76
2022/07/28 07:03:05;;;;;;;8.75;2.15;;;20.80;74.10;;;;;;5008133;28;20030;-76
2022/07/28 07:05:30;;;;;;;15.45;1.88;;;21.00;73.50;;;;;;5013051;28;20485;-76
2022/07/28 07:07:56;;;;;;;9.48;1.58;;;21.10;73.20;;;;;;5013539;28;20282;-76
2022/07/28 07:10:22;;;;;;;8.30;1.90;;;21.20;72.10;;;;;;5005349;28;20037;-76
2022/07/28 07:12:48;;;;;;;6.35;1.45;;;21.30;71.30;;;;;;5010391;28;20040;-76
2022/07/28 07:15:13;;;;;;;5.38;1.50;;;21.40;71.20;;;;;;4976964;28;20512;-77
2022/07/28 07:17:40;;;;;;;9.40;1.60;;;21.40;70.90;;;;;;4989869;28;20026;-77
2022/07/28 07:20:06;;;;;;;7.85;1.55;;;21.50;71.40;;;;;;5011707;28;20198;-77
2022/07/28 07:22:32;;;;;;;12.95;2.50;;;21.60;70.20;;;;;;4977788;28;20496;-77
2022/07/28 07:25:07;;;;;;;8.95;1.63;;;21.60;70.50;;;;;;5008330;28;20069;-77
2022/07/28 07:27:33;;;;;;;3.55;1.27;;;21.80;69.20;;;;;;5006923;28;20029;-77
2022/07/28 07:29:58;;;;;;;10.10;1.60;;;22.10;68.90;;;;;;5008291;28;20132;-77
2022/07/28 07:32:24;;;;;;;7.80;1.40;;;22.20;67.60;;;;;;5020506;28;20073;-77
2022/07/28 07:34:49;;;;;;;6.13;1.50;;;22.20;68.70;;;;;;5006413;28;20045;-77
2022/07/28 07:37:16;;;;;;;5.28;1.38;;;22.30;68.10;;;;;;4976033;28;20073;-77
2022/07/28 07:39:41;;;;;;;4.53;1.17;;;22.50;68.40;;;;;;5022121;28;20466;-77
2022/07/28 07:42:07;;;;;;;5.03;1.38;;;22.80;67.60;;;;;;4990466;28;20043;-77
2022/07/28 07:44:33;;;;;;;4.30;1.50;;;23.10;67.60;;;;;;5020445;28;20124;-77
2022/07/28 07:46:58;;;;;;;5.20;1.67;;;23.50;64.80;;;;;;5008575;28;20441;-77
2022/07/28 07:49:24;;;;;;;6.30;1.60;;;23.70;62.90;;;;;;5004627;28;20130;-77
2022/07/28 07:51:49;;;;;;;6.45;1.48;;;23.80;63.90;;;;;;5007599;28;20536;-77
2022/07/28 07:54:15;;;;;;;6.72;1.80;;;24.00;62.20;;;;;;5025709;28;20060;-77
2022/07/28 07:56:40;;;;;;;7.88;1.42;;;24.20;61.60;;;;;;4988912;28;20092;-77
2022/07/28 07:59:06;;;;;;;5.05;1.40;;;24.10;61.10;;;;;;5008892;28;20105;-77
2022/07/28 08:01:31;;;;;;;6.80;1.38;;;24.20;61.20;;;;;;4986526;28;20022;-77
2022/07/28 08:03:59;;;;;;;5.03;1.33;;;24.30;62.00;;;;;;5004902;28;20138;-77
2022/07/28 08:06:26;;;;;;;5.65;1.42;;;24.40;62.10;;;;;;4989364;28;20034;-77
2022/07/28 08:08:52;;;;;;;5.10;1.33;;;24.60;59.70;;;;;;5008539;28;20034;-78
2022/07/28 08:11:18;;;;;;;6.47;1.48;;;24.80;59.70;;;;;;4979361;28;20026;-78
2022/07/28 08:13:43;;;;;;;7.50;1.95;;;24.80;58.80;;;;;;4975368;28;20030;-78
2022/07/28 08:16:09;;;;;;;3.40;1.35;;;24.90;58.60;;;;;;4987853;28;20026;-78
2022/07/28 08:18:34;;;;;;;5.72;1.50;;;24.90;57.70;;;;;;5010802;28;20038;-78
2022/07/28 08:21:00;;;;;;;6.22;1.50;;;24.90;59.30;;;;;;5025160;28;20042;-78
2022/07/28 08:23:26;;;;;;;7.97;1.20;;;25.00;58.40;;;;;;5007360;28;20069;-78
2022/07/28 08:25:51;;;;;;;3.42;0.98;;;25.00;58.70;;;;;;5011686;28;20088;-78
2022/07/28 08:28:17;;;;;;;5.85;1.10;;;25.30;57.60;;;;;;5009947;28;20477;-78
2022/07/28 08:30:42;;;;;;;4.13;1.15;;;25.40;57.80;;;;;;4972218;28;20099;-78
2022/07/28 08:33:08;;;;;;;7.40;1.35;;;25.50;57.60;;;;;;5008608;28;20433;-78
2022/07/28 08:35:34;;;;;;;6.05;1.55;;;25.50;57.50;;;;;;4987407;28;20525;-78
2022/07/28 08:38:00;;;;;;;4.53;1.38;;;25.60;57.00;;;;;;5006427;28;20080;-78
2022/07/28 08:40:26;;;;;;;6.53;1.42;;;25.80;56.80;;;;;;4986362;28;20034;-78
2022/07/28 08:43:13;;;;;;;4.40;1.42;;;25.80;56.20;;;;;;5005062;28;20033;-78
2022/07/28 08:45:38;;;;;;;3.90;1.30;;;25.80;56.10;;;;;;5005926;28;20030;-78
2022/07/28 08:48:05;;;;;;;3.45;0.90;;;25.90;55.60;;;;;;5006010;28;20057;-78
2022/07/28 08:50:30;;;;;;;4.47;0.98;;;26.00;54.50;;;;;;4987599;28;20042;-78
2022/07/28 08:52:56;;;;;;;2.22;1.42;;;26.00;54.40;;;;;;5006069;28;20396;-78
2022/07/28 08:55:23;;;;;;;2.90;0.80;;;26.00;54.40;;;;;;4991465;28;20503;-78
2022/07/28 08:57:48;;;;;;;2.00;0.93;;;26.00;54.80;;;;;;4991323;28;20060;-79
2022/07/28 09:00:14;;;;;;;7.18;1.70;;;26.20;55.00;;;;;;5006423;28;20042;-79
2022/07/28 09:02:46;;;;;;;5.63;1.33;;;26.50;53.90;;;;;;4993038;28;20493;-79
2022/07/28 09:05:11;;;;;;;4.78;1.60;;;26.60;53.40;;;;;;5002541;28;20038;-78
2022/07/28 09:07:37;;;;;;;5.05;1.27;;;26.80;53.30;;;;;;5006108;28;20082;-79
2022/07/28 09:10:07;;;;;;;5.00;1.45;;;26.80;52.90;;;;;;4985800;28;20061;-79
2022/07/28 09:12:36;;;;;;;4.43;1.20;;;26.90;52.80;;;;;;4985615;28;20059;-80
2022/07/28 09:15:03;;;;;;;5.32;1.08;;;27.10;51.50;;;;;;4968109;28;20034;-79
2022/07/28 09:17:28;;;;;;;6.43;0.80;;;27.20;52.40;;;;;;4997381;28;20119;-79
2022/07/28 09:19:54;;;;;;;2.22;1.13;;;27.30;50.80;;;;;;4987319;28;20124;-79
2022/07/28 09:22:19;;;;;;;16.05;1.55;;;27.30;51.70;;;;;;4989315;28;20088;-80
2022/07/28 09:24:45;;;;;;;4.97;0.90;;;27.40;50.90;;;;;;5006900;28;20069;-79
2022/07/28 09:27:12;;;;;;;4.95;1.35;;;27.40;51.10;;;;;;4979897;28;20042;-80
2022/07/28 09:29:43;;;;;;;9.32;1.20;;;27.50;49.30;;;;;;5008311;28;20030;-80
2022/07/28 09:32:09;;;;;;;5.05;1.20;;;27.60;50.30;;;;;;4988960;28;20029;-80
2022/07/28 09:34:39;;;;;;;4.10;1.13;;;27.50;50.70;;;;;;4999979;28;20049;-80
2022/07/28 09:37:05;;;;;;;3.92;1.25;;;27.70;49.90;;;;;;5003460;28;20088;-80
2022/07/28 09:39:34;;;;;;;9.90;1.52;;;27.70;49.20;;;;;;4991257;28;20053;-81
2022/07/28 09:42:00;;;;;;;4.57;1.00;;;27.80;49.70;;;;;;4994946;28;20148;-81
2022/07/28 09:44:26;;;;;;;3.92;1.35;;;27.80;49.60;;;;;;4985629;28;20133;-81
2022/07/28 09:46:52;;;;;;;3.22;0.90;;;27.80;49.20;;;;;;4992739;28;20596;-80
2022/07/28 09:49:18;;;;;;;4.18;0.88;;;27.80;50.10;;;;;;4953528;28;20039;-80
2022/07/28 09:52:10;;;;;;;5.93;1.23;;;27.80;48.50;;;;;;5002831;28;20502;-81
2022/07/28 09:54:35;;;;;;;10.40;1.08;;;27.90;48.00;;;;;;4976881;28;20113;-81
2022/07/28 09:57:01;;;;;;;5.47;1.20;;;27.90;49.10;;;;;;4978559;28;20030;-81
2022/07/28 09:59:42;;;;;;;5.15;1.20;;;27.90;48.50;;;;;;4978768;28;20026;-82
2022/07/28 10:02:08;;;;;;;3.75;1.00;;;27.90;48.70;;;;;;4981101;28;20520;-82
2022/07/28 10:04:35;;;;;;;2.65;1.00;;;27.90;47.40;;;;;;5004024;28;20303;-82
2022/07/28 10:07:04;;;;;;;6.63;1.13;;;27.90;47.70;;;;;;4998519;28;20049;-82
2022/07/28 10:09:30;;;;;;;2.72;0.90;;;27.80;48.50;;;;;;5011521;28;20034;-82
2022/07/28 10:12:15;;;;;;;5.93;1.40;;;27.90;47.90;;;;;;5012022;28;20422;-82
2022/07/28 10:14:41;;;;;;;9.10;1.50;;;28.10;47.80;;;;;;4993456;28;20057;-81
2022/07/28 10:17:08;;;;;;;6.53;1.75;;;28.20;47.50;;;;;;4975370;28;20029;-83
2022/07/28 10:19:34;;;;;;;6.38;1.27;;;28.10;48.00;;;;;;5007069;28;20061;-83
2022/07/28 10:21:59;;;;;;;53.50;7.72;;;28.30;47.50;;;;;;4996223;28;20038;-82
2022/07/28 10:24:25;;;;;;;5.38;1.42;;;28.40;47.00;;;;;;4990185;28;20501;-83
2022/07/28 10:26:51;;;;;;;4.32;1.48;;;28.40;48.00;;;;;;5012604;28;20378;-82
2022/07/28 10:29:19;;;;;;;6.25;1.40;;;28.50;47.60;;;;;;4993340;28;20064;-83
2022/07/28 10:31:51;;;;;;;4.13;1.40;;;28.70;46.30;;;;;;5014182;28;20561;-83
2022/07/28 10:34:26;;;;;;;4.60;0.88;;;28.60;46.40;;;;;;5030432;28;20025;-84
2022/07/28 10:36:55;;;;;;;4.22;1.25;;;28.70;47.90;;;;;;4996680;28;20049;-85
2022/07/28 10:39:22;;;;;;;2.85;1.00;;;28.80;48.10;;;;;;4994330;28;20638;-84
2022/07/28 10:41:48;;;;;;;3.47;1.10;;;28.90;48.10;;;;;;4977806;28;20117;-85
2022/07/28 10:44:13;;;;;;;1.52;0.95;;;29.10;47.60;;;;;;4995353;28;20048;-85
2022/07/28 10:46:42;;;;;;;5.70;1.30;;;29.10;47.70;;;;;;5010561;28;20030;-85
2022/07/28 10:49:08;;;;;;;3.95;1.10;;;29.40;47.50;;;;;;4990907;28;20261;-85
2022/07/28 10:51:34;;;;;;;7.00;1.30;;;29.50;45.20;;;;;;5007930;28;20146;-85
2022/07/28 10:54:02;;;;;;;3.95;0.90;;;29.70;46.10;;;;;;5009160;28;20140;-86
2022/07/28 10:56:34;;;;;;;2.67;1.08;;;29.80;46.20;;;;;;5012559;28;20494;-85
2022/07/28 10:59:05;;;;;;;2.92;1.27;;;29.90;44.40;;;;;;5005595;28;20586;-84
2022/07/28 11:01:38;;;;;;;3.13;1.20;;;30.00;45.40;;;;;;4992263;28;20103;-84
2022/07/28 11:04:07;;;;;;;4.25;1.10;;;30.10;46.00;;;;;;4999861;28;20852;-83
2022/07/28 11:06:34;;;;;;;3.10;0.70;;;30.20;45.70;;;;;;4995517;28;20079;-83
2022/07/28 11:09:15;;;;;;;6.25;1.38;;;30.30;45.20;;;;;;4999468;28;20072;-83
2022/07/28 11:11:44;;;;;;;4.65;1.13;;;30.50;43.00;;;;;;5012275;28;20041;-82
2022/07/28 11:14:24;;;;;;;2.58;0.88;;;30.50;43.80;;;;;;4989896;28;20121;-82
2022/07/28 11:17:05;;;;;;;1.95;0.98;;;30.50;43.80;;;;;;5009066;28;20030;-82
2022/07/28 11:19:31;;;;;;;4.25;0.93;;;30.70;43.80;;;;;;5006515;28;20037;-82
2022/07/28 11:25:10;;;;;;;4.47;1.05;;;30.90;44.50;;;;;;5013519;28;20625;-80
2022/07/28 11:27:39;;;;;;;3.67;1.13;;;31.00;42.50;;;;;;4969600;28;20049;-80
2022/07/28 11:30:31;;;;;;;3.72;1.15;;;31.10;42.60;;;;;;5007651;28;20033;-79
2022/07/28 11:33:00;;;;;;;3.10;0.90;;;31.20;43.70;;;;;;4985590;28;20038;-81
2022/07/28 11:35:27;;;;;;;1.27;0.98;;;31.10;43.50;;;;;;4999056;28;20041;-78
2022/07/28 11:38:01;;;;;;;3.80;0.90;;;31.20;43.80;;;;;;4984484;28;20144;-78
2022/07/28 11:40:39;;;;;;;14.77;1.45;;;31.40;42.60;;;;;;5006903;28;20343;-78
2022/07/28 11:43:24;;;;;;;2.78;1.10;;;31.30;41.70;;;;;;4999738;28;20358;-79
2022/07/28 11:46:09;;;;;;;6.72;1.10;;;31.40;41.70;;;;;;5003992;28;20120;-78
2022/07/28 11:48:35;;;;;;;3.15;1.30;;;31.50;41.80;;;;;;4993492;28;20049;-78
2022/07/28 11:51:03;;;;;;;3.65;1.10;;;31.60;42.10;;;;;;5001091;28;20219;-78
2022/07/28 11:53:37;;;;;;;1.77;0.70;;;31.80;43.30;;;;;;5024616;28;20234;-78
2022/07/28 11:56:07;;;;;;;5.30;0.95;;;31.90;43.50;;;;;;4960912;28;20045;-78
2022/07/28 11:58:32;;;;;;;2.45;0.90;;;32.30;43.10;;;;;;4981492;28;20038;-78
2022/07/28 12:01:12;;;;;;;2.65;1.25;;;32.20;42.90;;;;;;4996377;28;20441;-78
2022/07/28 12:03:40;;;;;;;3.60;1.05;;;32.30;40.90;;;;;;5006839;28;20627;-77
2022/07/28 12:06:09;;;;;;;6.05;1.00;;;32.30;41.80;;;;;;4999072;28;20057;-78
2022/07/28 12:08:53;;;;;;;5.60;1.40;;;32.30;40.40;;;;;;4989644;28;20044;-78
2022/07/28 12:11:19;;;;;;;1.52;0.93;;;32.30;40.70;;;;;;4999880;28;20129;-78
2022/07/28 12:13:45;;;;;;;6.35;1.73;;;32.40;42.50;;;;;;5001097;28;20061;-78
2022/07/28 12:16:11;;;;;;;3.55;1.05;;;32.50;40.90;;;;;;4983374;28;20148;-78
2022/07/28 12:18:36;;;;;;;1.95;0.80;;;32.60;41.90;;;;;;4979549;28;20041;-79
2022/07/28 12:21:02;;;;;;;2.53;0.95;;;32.70;41.70;;;;;;5018594;28;20382;-77
2022/07/28 12:23:32;;;;;;;2.90;1.17;;;32.70;41.80;;;;;;4958318;28;20370;-77
2022/07/28 12:26:00;;;;;;;3.80;0.88;;;32.80;41.50;;;;;;5014411;28;20030;-77
2022/07/28 12:28:28;;;;;;;3.90;1.23;;;33.00;42.10;;;;;;4993898;28;20045;-76
2022/07/28 12:30:53;;;;;;;3.72;1.13;;;33.00;40.10;;;;;;4992671;28;20158;-77
2022/07/28 12:33:23;;;;;;;2.47;1.20;;;33.10;40.90;;;;;;4958085;28;20527;-77
2022/07/28 12:35:51;;;;;;;4.13;1.17;;;33.10;39.90;;;;;;4990317;28;20085;-77
2022/07/28 12:38:21;;;;;;;5.63;1.25;;;33.10;40.00;;;;;;4982287;28;20493;-79
2022/07/28 12:40:46;;;;;;;4.90;1.40;;;33.10;40.70;;;;;;4999906;28;20502;-77
2022/07/28 12:43:17;;;;;;;5.68;1.60;;;33.10;39.70;;;;;;4992683;28;20125;-78
2022/07/28 12:45:44;;;;;;;4.82;1.17;;;33.10;40.70;;;;;;4988765;28;20494;-77
2022/07/28 12:48:10;;;;;;;7.63;1.52;;;33.20;39.80;;;;;;4988944;28;20078;-77
2022/07/28 12:50:36;;;;;;;4.38;1.20;;;33.20;39.70;;;;;;4968983;28;20066;-77